sensor_id;sensor_type;location;lat;lon;timestamp;P1;durP1;ratioP1;P2;durP2;ratioP2
789;SDS011;378;48.844;9.156;2023-05-07T00:00:22;6.68;;;3.80;;
789;SDS011;378;48.844;9.156;2023-05-07T00:02:50;7.15;;;4.10;;
789;SDS011;378;48.844;9.156;2023-05-07T00:05:18;8.02;;;3.50;;
789;SDS011;378;48.844;9.156;2023-05-07T00:07:46;6.88;;;3.63;;
789;SDS011;378;48.844;9.156;2023-05-07T00:10:13;7.55;;;4.05;;
789;SDS011;378;48.844;9.156;2023-05-07T00:12:40;8.98;;;4.20;;
789;SDS011;378;48.844;9.156;2023-05-07T00:15:07;9.27;;;4.72;;
789;SDS011;378;48.844;9.156;2023-05-07T00:17:35;8.98;;;4.25;;
789;SDS011;378;48.844;9.156;2023-05-07T00:20:03;7.85;;;4.40;;
789;SDS011;378;48.844;9.156;2023-05-07T00:22:31;9.07;;;4.30;;
789;SDS011;378;48.844;9.156;2023-05-07T00:24:57;9.15;;;4.10;;
789;SDS011;378;48.844;9.156;2023-05-07T00:27:25;6.63;;;4.15;;
789;SDS011;378;48.844;9.156;2023-05-07T00:29:52;8.18;;;4.65;;
789;SDS011;378;48.844;9.156;2023-05-07T00:32:19;9.05;;;5.32;;
789;SDS011;378;48.844;9.156;2023-05-07T00:34:45;10.70;;;4.93;;
789;SDS011;378;48.844;9.156;2023-05-07T00:37:14;10.25;;;4.60;;
789;SDS011;378;48.844;9.156;2023-05-07T00:39:40;8.57;;;4.80;;
789;SDS011;378;48.844;9.156;2023-05-07T00:42:07;8.93;;;4.78;;
789;SDS011;378;48.844;9.156;2023-05-07T00:44:34;8.15;;;4.80;;
789;SDS011;378;48.844;9.156;2023-05-07T00:47:02;8.57;;;4.95;;
789;SDS011;378;48.844;9.156;2023-05-07T00:49:35;7.10;;;4.53;;
789;SDS011;378;48.844;9.156;2023-05-07T00:52:05;10.20;;;5.35;;
789;SDS011;378;48.844;9.156;2023-05-07T00:54:34;10.45;;;4.72;;
789;SDS011;378;48.844;9.156;2023-05-07T00:57:01;10.90;;;5.07;;
789;SDS011;378;48.844;9.156;2023-05-07T00:59:29;8.75;;;4.47;;
789;SDS011;378;48.844;9.156;2023-05-07T01:01:57;9.30;;;4.68;;
789;SDS011;378;48.844;9.156;2023-05-07T01:04:24;8.05;;;4.72;;
789;SDS011;378;48.844;9.156;2023-05-07T01:06:51;8.43;;;4.68;;
789;SDS011;378;48.844;9.156;2023-05-07T01:09:20;8.45;;;4.80;;
789;SDS011;378;48.844;9.156;2023-05-07T01:11:49;6.85;;;4.68;;
789;SDS011;378;48.844;9.156;2023-05-07T01:14:17;9.15;;;4.70;;
789;SDS011;378;48.844;9.156;2023-05-07T01:16:45;6.45;;;4.35;;
789;SDS011;378;48.844;9.156;2023-05-07T01:19:12;10.05;;;4.72;;
789;SDS011;378;48.844;9.156;2023-05-07T01:21:44;8.63;;;4.22;;
789;SDS011;378;48.844;9.156;2023-05-07T01:24:14;8.48;;;4.72;;
789;SDS011;378;48.844;9.156;2023-05-07T01:26:42;9.02;;;4.43;;
789;SDS011;378;48.844;9.156;2023-05-07T01:29:09;11.00;;;4.50;;
789;SDS011;378;48.844;9.156;2023-05-07T01:31:36;8.68;;;4.40;;
789;SDS011;378;48.844;9.156;2023-05-07T01:34:04;6.65;;;3.95;;
789;SDS011;378;48.844;9.156;2023-05-07T01:36:34;8.20;;;4.70;;
789;SDS011;378;48.844;9.156;2023-05-07T01:39:02;8.43;;;4.22;;
789;SDS011;378;48.844;9.156;2023-05-07T01:41:31;11.05;;;5.00;;
789;SDS011;378;48.844;9.156;2023-05-07T01:43:58;6.65;;;4.30;;
789;SDS011;378;48.844;9.156;2023-05-07T01:46:26;7.60;;;4.50;;
789;SDS011;378;48.844;9.156;2023-05-07T01:48:53;10.25;;;4.82;;
789;SDS011;378;48.844;9.156;2023-05-07T01:51:20;8.40;;;4.63;;
789;SDS011;378;48.844;9.156;2023-05-07T01:53:47;7.72;;;4.03;;
789;SDS011;378;48.844;9.156;2023-05-07T01:56:16;8.57;;;4.28;;
789;SDS011;378;48.844;9.156;2023-05-07T01:58:45;6.78;;;4.40;;
789;SDS011;378;48.844;9.156;2023-05-07T02:01:12;9.20;;;4.70;;
789;SDS011;378;48.844;9.156;2023-05-07T02:03:39;7.53;;;4.50;;
789;SDS011;378;48.844;9.156;2023-05-07T02:06:06;8.77;;;4.65;;
789;SDS011;378;48.844;9.156;2023-05-07T02:08:33;6.90;;;4.20;;
789;SDS011;378;48.844;9.156;2023-05-07T02:11:00;8.50;;;4.50;;
789;SDS011;378;48.844;9.156;2023-05-07T02:13:28;9.93;;;4.63;;
789;SDS011;378;48.844;9.156;2023-05-07T02:15:59;6.35;;;4.25;;
789;SDS011;378;48.844;9.156;2023-05-07T02:18:26;8.55;;;4.50;;
789;SDS011;378;48.844;9.156;2023-05-07T02:20:53;6.30;;;4.22;;
789;SDS011;378;48.844;9.156;2023-05-07T02:23:19;7.95;;;4.60;;
789;SDS011;378;48.844;9.156;2023-05-07T02:25:46;11.23;;;4.72;;
789;SDS011;378;48.844;9.156;2023-05-07T02:28:13;10.13;;;4.18;;
789;SDS011;378;48.844;9.156;2023-05-07T02:30:40;7.43;;;4.25;;
789;SDS011;378;48.844;9.156;2023-05-07T02:33:08;8.55;;;4.47;;
789;SDS011;378;48.844;9.156;2023-05-07T02:35:37;6.97;;;4.15;;
789;SDS011;378;48.844;9.156;2023-05-07T02:38:04;8.27;;;3.83;;
789;SDS011;378;48.844;9.156;2023-05-07T02:40:30;8.13;;;4.32;;
789;SDS011;378;48.844;9.156;2023-05-07T02:42:58;10.35;;;4.10;;
789;SDS011;378;48.844;9.156;2023-05-07T02:45:25;8.35;;;4.40;;
789;SDS011;378;48.844;9.156;2023-05-07T02:47:52;7.10;;;4.15;;
789;SDS011;378;48.844;9.156;2023-05-07T02:50:21;5.93;;;4.28;;
789;SDS011;378;48.844;9.156;2023-05-07T02:52:48;17.08;;;4.32;;
789;SDS011;378;48.844;9.156;2023-05-07T02:55:15;7.85;;;4.40;;
789;SDS011;378;48.844;9.156;2023-05-07T02:57:42;7.68;;;3.97;;
789;SDS011;378;48.844;9.156;2023-05-07T03:00:12;9.73;;;3.88;;
789;SDS011;378;48.844;9.156;2023-05-07T03:02:40;7.20;;;4.15;;
789;SDS011;378;48.844;9.156;2023-05-07T03:05:07;7.43;;;4.00;;
789;SDS011;378;48.844;9.156;2023-05-07T03:07:36;7.13;;;4.47;;
789;SDS011;378;48.844;9.156;2023-05-07T03:10:03;7.85;;;3.80;;
789;SDS011;378;48.844;9.156;2023-05-07T03:12:30;6.68;;;4.13;;
789;SDS011;378;48.844;9.156;2023-05-07T03:14:57;7.55;;;4.38;;
789;SDS011;378;48.844;9.156;2023-05-07T03:17:24;8.13;;;4.40;;
789;SDS011;378;48.844;9.156;2023-05-07T03:19:50;9.77;;;4.43;;
789;SDS011;378;48.844;9.156;2023-05-07T03:22:17;8.15;;;4.15;;
789;SDS011;378;48.844;9.156;2023-05-07T03:24:45;6.72;;;3.90;;
789;SDS011;378;48.844;9.156;2023-05-07T03:27:12;6.95;;;4.43;;
789;SDS011;378;48.844;9.156;2023-05-07T03:29:39;7.32;;;4.18;;
789;SDS011;378;48.844;9.156;2023-05-07T03:32:06;7.07;;;4.38;;
789;SDS011;378;48.844;9.156;2023-05-07T03:34:33;10.85;;;4.57;;
789;SDS011;378;48.844;9.156;2023-05-07T03:36:59;8.88;;;4.32;;
789;SDS011;378;48.844;9.156;2023-05-07T03:39:26;6.55;;;4.15;;
789;SDS011;378;48.844;9.156;2023-05-07T03:41:54;6.43;;;4.15;;
789;SDS011;378;48.844;9.156;2023-05-07T03:44:21;9.00;;;3.88;;
789;SDS011;378;48.844;9.156;2023-05-07T03:46:48;8.20;;;4.72;;
789;SDS011;378;48.844;9.156;2023-05-07T03:49:15;7.00;;;4.20;;
789;SDS011;378;48.844;9.156;2023-05-07T03:51:42;6.57;;;4.10;;
789;SDS011;378;48.844;9.156;2023-05-07T03:54:08;6.38;;;4.03;;
789;SDS011;378;48.844;9.156;2023-05-07T03:56:35;6.03;;;3.95;;
789;SDS011;378;48.844;9.156;2023-05-07T03:59:03;7.13;;;4.30;;
789;SDS011;378;48.844;9.156;2023-05-07T04:01:30;9.85;;;4.38;;
789;SDS011;378;48.844;9.156;2023-05-07T04:03:57;8.30;;;5.03;;
789;SDS011;378;48.844;9.156;2023-05-07T04:06:24;9.70;;;4.72;;
789;SDS011;378;48.844;9.156;2023-05-07T04:08:51;7.63;;;4.03;;
789;SDS011;378;48.844;9.156;2023-05-07T04:11:17;6.40;;;4.15;;
789;SDS011;378;48.844;9.156;2023-05-07T04:13:45;6.50;;;4.35;;
789;SDS011;378;48.844;9.156;2023-05-07T04:16:13;7.82;;;4.10;;
789;SDS011;378;48.844;9.156;2023-05-07T04:18:40;9.20;;;3.88;;
789;SDS011;378;48.844;9.156;2023-05-07T04:21:13;7.45;;;4.45;;
789;SDS011;378;48.844;9.156;2023-05-07T04:23:41;5.68;;;4.35;;
789;SDS011;378;48.844;9.156;2023-05-07T04:26:07;5.68;;;3.92;;
789;SDS011;378;48.844;9.156;2023-05-07T04:28:34;7.18;;;4.18;;
789;SDS011;378;48.844;9.156;2023-05-07T04:31:01;6.10;;;4.00;;
789;SDS011;378;48.844;9.156;2023-05-07T04:33:30;7.85;;;3.97;;
789;SDS011;378;48.844;9.156;2023-05-07T04:35:57;7.72;;;4.20;;
789;SDS011;378;48.844;9.156;2023-05-07T04:38:27;7.65;;;4.10;;
789;SDS011;378;48.844;9.156;2023-05-07T04:40:54;6.45;;;3.47;;
789;SDS011;378;48.844;9.156;2023-05-07T04:43:22;5.05;;;4.03;;
789;SDS011;378;48.844;9.156;2023-05-07T04:45:49;8.20;;;4.75;;
789;SDS011;378;48.844;9.156;2023-05-07T04:48:16;7.88;;;4.30;;
789;SDS011;378;48.844;9.156;2023-05-07T04:50:45;9.93;;;4.40;;
789;SDS011;378;48.844;9.156;2023-05-07T04:53:14;9.65;;;4.18;;
789;SDS011;378;48.844;9.156;2023-05-07T04:55:40;9.68;;;4.25;;
789;SDS011;378;48.844;9.156;2023-05-07T04:58:07;6.95;;;4.32;;
789;SDS011;378;48.844;9.156;2023-05-07T05:00:34;7.70;;;3.78;;
789;SDS011;378;48.844;9.156;2023-05-07T05:03:01;6.20;;;3.35;;
789;SDS011;378;48.844;9.156;2023-05-07T05:05:28;5.32;;;3.58;;
789;SDS011;378;48.844;9.156;2023-05-07T05:07:56;5.80;;;3.70;;
789;SDS011;378;48.844;9.156;2023-05-07T05:10:23;5.15;;;3.42;;
789;SDS011;378;48.844;9.156;2023-05-07T05:12:50;5.85;;;3.67;;
789;SDS011;378;48.844;9.156;2023-05-07T05:15:17;5.07;;;3.50;;
789;SDS011;378;48.844;9.156;2023-05-07T05:17:44;4.88;;;3.45;;
789;SDS011;378;48.844;9.156;2023-05-07T05:20:10;5.70;;;3.50;;
789;SDS011;378;48.844;9.156;2023-05-07T05:22:37;4.40;;;3.15;;
789;SDS011;378;48.844;9.156;2023-05-07T05:25:06;7.80;;;3.03;;
789;SDS011;378;48.844;9.156;2023-05-07T05:27:34;6.68;;;3.10;;
789;SDS011;378;48.844;9.156;2023-05-07T05:30:01;4.80;;;2.97;;
789;SDS011;378;48.844;9.156;2023-05-07T05:32:28;6.30;;;3.25;;
789;SDS011;378;48.844;9.156;2023-05-07T05:34:55;6.10;;;3.00;;
789;SDS011;378;48.844;9.156;2023-05-07T05:37:22;6.53;;;2.55;;
789;SDS011;378;48.844;9.156;2023-05-07T05:39:49;8.32;;;2.95;;
789;SDS011;378;48.844;9.156;2023-05-07T05:42:17;5.93;;;2.97;;
789;SDS011;378;48.844;9.156;2023-05-07T05:44:46;4.80;;;3.03;;
789;SDS011;378;48.844;9.156;2023-05-07T05:47:13;4.20;;;2.40;;
789;SDS011;378;48.844;9.156;2023-05-07T05:49:40;4.80;;;3.35;;
789;SDS011;378;48.844;9.156;2023-05-07T05:52:08;6.68;;;2.88;;
789;SDS011;378;48.844;9.156;2023-05-07T05:54:35;6.93;;;3.60;;
789;SDS011;378;48.844;9.156;2023-05-07T05:57:01;4.70;;;3.03;;
789;SDS011;378;48.844;9.156;2023-05-07T05:59:30;4.32;;;2.67;;
789;SDS011;378;48.844;9.156;2023-05-07T06:01:57;8.00;;;3.00;;
789;SDS011;378;48.844;9.156;2023-05-07T06:04:24;3.65;;;2.80;;
789;SDS011;378;48.844;9.156;2023-05-07T06:06:51;5.50;;;2.58;;
789;SDS011;378;48.844;9.156;2023-05-07T06:09:18;5.65;;;2.53;;
789;SDS011;378;48.844;9.156;2023-05-07T06:11:45;3.80;;;2.42;;
789;SDS011;378;48.844;9.156;2023-05-07T06:14:12;4.75;;;2.17;;
789;SDS011;378;48.844;9.156;2023-05-07T06:16:40;5.07;;;2.60;;
789;SDS011;378;48.844;9.156;2023-05-07T06:19:07;5.40;;;2.53;;
789;SDS011;378;48.844;9.156;2023-05-07T06:21:33;4.60;;;2.63;;
789;SDS011;378;48.844;9.156;2023-05-07T06:24:00;3.30;;;2.53;;
789;SDS011;378;48.844;9.156;2023-05-07T06:26:28;8.63;;;2.67;;
789;SDS011;378;48.844;9.156;2023-05-07T06:28:55;3.60;;;2.22;;
789;SDS011;378;48.844;9.156;2023-05-07T06:31:21;6.20;;;2.58;;
789;SDS011;378;48.844;9.156;2023-05-07T06:33:49;3.90;;;2.28;;
789;SDS011;378;48.844;9.156;2023-05-07T06:36:16;7.72;;;2.95;;
789;SDS011;378;48.844;9.156;2023-05-07T06:38:43;4.47;;;2.20;;
789;SDS011;378;48.844;9.156;2023-05-07T06:41:10;3.60;;;2.50;;
789;SDS011;378;48.844;9.156;2023-05-07T06:43:37;5.38;;;2.47;;
789;SDS011;378;48.844;9.156;2023-05-07T06:46:04;4.63;;;2.20;;
789;SDS011;378;48.844;9.156;2023-05-07T06:48:32;7.88;;;2.40;;
789;SDS011;378;48.844;9.156;2023-05-07T06:51:00;4.90;;;2.60;;
789;SDS011;378;48.844;9.156;2023-05-07T06:53:27;6.88;;;2.53;;
789;SDS011;378;48.844;9.156;2023-05-07T06:55:55;3.53;;;2.30;;
789;SDS011;378;48.844;9.156;2023-05-07T06:58:22;4.30;;;2.42;;
789;SDS011;378;48.844;9.156;2023-05-07T07:00:49;4.13;;;2.45;;
789;SDS011;378;48.844;9.156;2023-05-07T07:03:16;4.10;;;2.15;;
789;SDS011;378;48.844;9.156;2023-05-07T07:05:43;3.55;;;2.58;;
789;SDS011;378;48.844;9.156;2023-05-07T07:08:11;3.40;;;2.20;;
789;SDS011;378;48.844;9.156;2023-05-07T07:10:38;5.78;;;2.40;;
789;SDS011;378;48.844;9.156;2023-05-07T07:13:05;5.03;;;2.70;;
789;SDS011;378;48.844;9.156;2023-05-07T07:15:32;4.72;;;2.10;;
789;SDS011;378;48.844;9.156;2023-05-07T07:17:59;2.60;;;2.15;;
789;SDS011;378;48.844;9.156;2023-05-07T07:20:25;4.15;;;2.65;;
789;SDS011;378;48.844;9.156;2023-05-07T07:22:52;6.30;;;2.60;;
789;SDS011;378;48.844;9.156;2023-05-07T07:25:21;5.72;;;2.50;;
789;SDS011;378;48.844;9.156;2023-05-07T07:27:48;3.05;;;2.20;;
789;SDS011;378;48.844;9.156;2023-05-07T07:30:15;5.47;;;2.40;;
789;SDS011;378;48.844;9.156;2023-05-07T07:32:42;3.42;;;2.40;;
789;SDS011;378;48.844;9.156;2023-05-07T07:35:09;4.22;;;2.22;;
789;SDS011;378;48.844;9.156;2023-05-07T07:37:36;5.68;;;2.38;;
789;SDS011;378;48.844;9.156;2023-05-07T07:40:03;5.53;;;2.50;;
789;SDS011;378;48.844;9.156;2023-05-07T07:42:31;6.80;;;2.80;;
789;SDS011;378;48.844;9.156;2023-05-07T07:44:58;4.47;;;2.78;;
789;SDS011;378;48.844;9.156;2023-05-07T07:47:25;7.57;;;3.10;;
789;SDS011;378;48.844;9.156;2023-05-07T07:49:52;3.10;;;2.40;;
789;SDS011;378;48.844;9.156;2023-05-07T07:52:19;4.35;;;2.70;;
789;SDS011;378;48.844;9.156;2023-05-07T07:54:46;4.97;;;2.50;;
789;SDS011;378;48.844;9.156;2023-05-07T07:57:12;6.20;;;2.70;;
789;SDS011;378;48.844;9.156;2023-05-07T07:59:41;6.78;;;2.60;;
789;SDS011;378;48.844;9.156;2023-05-07T08:02:08;5.35;;;2.80;;
789;SDS011;378;48.844;9.156;2023-05-07T08:04:35;5.20;;;2.92;;
789;SDS011;378;48.844;9.156;2023-05-07T08:07:02;4.78;;;2.40;;
789;SDS011;378;48.844;9.156;2023-05-07T08:09:29;6.15;;;2.33;;
789;SDS011;378;48.844;9.156;2023-05-07T08:11:56;5.10;;;2.47;;
789;SDS011;378;48.844;9.156;2023-05-07T08:14:23;3.67;;;2.47;;
789;SDS011;378;48.844;9.156;2023-05-07T08:16:51;6.30;;;2.60;;
789;SDS011;378;48.844;9.156;2023-05-07T08:19:18;7.05;;;2.70;;
789;SDS011;378;48.844;9.156;2023-05-07T08:21:46;5.20;;;2.53;;
789;SDS011;378;48.844;9.156;2023-05-07T08:24:13;4.03;;;2.55;;
789;SDS011;378;48.844;9.156;2023-05-07T08:26:40;9.75;;;2.60;;
789;SDS011;378;48.844;9.156;2023-05-07T08:29:07;5.90;;;2.38;;
789;SDS011;378;48.844;9.156;2023-05-07T08:31:34;3.60;;;2.30;;
789;SDS011;378;48.844;9.156;2023-05-07T08:34:02;4.95;;;2.50;;
789;SDS011;378;48.844;9.156;2023-05-07T08:36:29;5.32;;;2.55;;
789;SDS011;378;48.844;9.156;2023-05-07T08:38:57;4.35;;;2.60;;
789;SDS011;378;48.844;9.156;2023-05-07T08:41:23;3.78;;;2.65;;
789;SDS011;378;48.844;9.156;2023-05-07T08:43:50;4.25;;;2.53;;
789;SDS011;378;48.844;9.156;2023-05-07T08:46:18;5.03;;;2.60;;
789;SDS011;378;48.844;9.156;2023-05-07T08:48:47;4.55;;;2.45;;
789;SDS011;378;48.844;9.156;2023-05-07T08:51:18;4.38;;;2.30;;
789;SDS011;378;48.844;9.156;2023-05-07T08:53:46;4.03;;;2.47;;
789;SDS011;378;48.844;9.156;2023-05-07T08:56:14;4.10;;;2.08;;
789;SDS011;378;48.844;9.156;2023-05-07T08:58:42;5.45;;;2.10;;
789;SDS011;378;48.844;9.156;2023-05-07T09:01:10;5.47;;;2.15;;
789;SDS011;378;48.844;9.156;2023-05-07T09:03:40;4.05;;;2.33;;
789;SDS011;378;48.844;9.156;2023-05-07T09:06:10;3.72;;;2.30;;
789;SDS011;378;48.844;9.156;2023-05-07T09:08:38;3.20;;;2.38;;
789;SDS011;378;48.844;9.156;2023-05-07T09:11:05;3.13;;;2.08;;
789;SDS011;378;48.844;9.156;2023-05-07T09:13:32;4.93;;;2.45;;
789;SDS011;378;48.844;9.156;2023-05-07T09:15:59;3.88;;;2.28;;
789;SDS011;378;48.844;9.156;2023-05-07T09:18:37;5.15;;;2.00;;
789;SDS011;378;48.844;9.156;2023-05-07T09:21:09;3.92;;;2.03;;
789;SDS011;378;48.844;9.156;2023-05-07T09:23:38;3.30;;;2.13;;
789;SDS011;378;48.844;9.156;2023-05-07T09:26:06;2.92;;;1.70;;
789;SDS011;378;48.844;9.156;2023-05-07T09:28:37;3.80;;;2.30;;
789;SDS011;378;48.844;9.156;2023-05-07T09:31:06;4.38;;;2.10;;
789;SDS011;378;48.844;9.156;2023-05-07T09:33:32;5.03;;;2.28;;
789;SDS011;378;48.844;9.156;2023-05-07T09:36:02;5.80;;;1.83;;
789;SDS011;378;48.844;9.156;2023-05-07T09:38:30;4.93;;;1.77;;
789;SDS011;378;48.844;9.156;2023-05-07T09:41:02;3.58;;;1.48;;
789;SDS011;378;48.844;9.156;2023-05-07T09:43:33;2.67;;;1.55;;
789;SDS011;378;48.844;9.156;2023-05-07T09:46:02;3.33;;;1.85;;
789;SDS011;378;48.844;9.156;2023-05-07T09:48:32;2.60;;;1.50;;
789;SDS011;378;48.844;9.156;2023-05-07T09:51:03;3.42;;;1.92;;
789;SDS011;378;48.844;9.156;2023-05-07T09:53:37;2.60;;;1.50;;
789;SDS011;378;48.844;9.156;2023-05-07T09:56:07;3.08;;;1.60;;
789;SDS011;378;48.844;9.156;2023-05-07T09:58:36;1.63;;;1.50;;
789;SDS011;378;48.844;9.156;2023-05-07T10:01:04;4.07;;;1.85;;
789;SDS011;378;48.844;9.156;2023-05-07T10:03:32;3.67;;;1.60;;
789;SDS011;378;48.844;9.156;2023-05-07T10:06:01;3.75;;;1.77;;
789;SDS011;378;48.844;9.156;2023-05-07T10:08:30;3.70;;;1.45;;
789;SDS011;378;48.844;9.156;2023-05-07T10:10:57;2.00;;;1.35;;
789;SDS011;378;48.844;9.156;2023-05-07T10:13:25;3.65;;;1.55;;
789;SDS011;378;48.844;9.156;2023-05-07T10:15:52;2.00;;;1.70;;
789;SDS011;378;48.844;9.156;2023-05-07T10:18:21;5.22;;;1.35;;
789;SDS011;378;48.844;9.156;2023-05-07T10:20:54;2.72;;;1.33;;
789;SDS011;378;48.844;9.156;2023-05-07T10:23:28;3.80;;;1.50;;
789;SDS011;378;48.844;9.156;2023-05-07T10:25:57;3.45;;;1.75;;
789;SDS011;378;48.844;9.156;2023-05-07T10:28:29;1.52;;;1.42;;
789;SDS011;378;48.844;9.156;2023-05-07T10:31:02;3.40;;;1.50;;
789;SDS011;378;48.844;9.156;2023-05-07T10:33:36;5.28;;;1.85;;
789;SDS011;378;48.844;9.156;2023-05-07T10:36:05;2.10;;;1.50;;
789;SDS011;378;48.844;9.156;2023-05-07T10:38:33;7.30;;;1.98;;
789;SDS011;378;48.844;9.156;2023-05-07T10:40:59;3.33;;;1.70;;
789;SDS011;378;48.844;9.156;2023-05-07T10:43:39;4.03;;;2.13;;
789;SDS011;378;48.844;9.156;2023-05-07T10:46:11;2.33;;;1.80;;
789;SDS011;378;48.844;9.156;2023-05-07T10:51:36;3.90;;;1.45;;
789;SDS011;378;48.844;9.156;2023-05-07T10:54:19;5.15;;;1.58;;
789;SDS011;378;48.844;9.156;2023-05-07T10:56:47;3.53;;;1.40;;
789;SDS011;378;48.844;9.156;2023-05-07T11:02:09;2.90;;;1.55;;
789;SDS011;378;48.844;9.156;2023-05-07T11:04:39;1.95;;;1.25;;
789;SDS011;378;48.844;9.156;2023-05-07T11:07:25;4.63;;;1.80;;
789;SDS011;378;48.844;9.156;2023-05-07T11:09:54;2.00;;;1.50;;
789;SDS011;378;48.844;9.156;2023-05-07T11:15:40;4.43;;;1.70;;
789;SDS011;378;48.844;9.156;2023-05-07T11:18:10;3.33;;;1.83;;
789;SDS011;378;48.844;9.156;2023-05-07T11:20:44;3.63;;;1.80;;
789;SDS011;378;48.844;9.156;2023-05-07T11:26:25;5.38;;;2.30;;
789;SDS011;378;48.844;9.156;2023-05-07T11:28:53;3.20;;;2.10;;
789;SDS011;378;48.844;9.156;2023-05-07T11:31:22;3.80;;;1.80;;
789;SDS011;378;48.844;9.156;2023-05-07T11:33:51;3.20;;;1.90;;
789;SDS011;378;48.844;9.156;2023-05-07T11:36:18;2.92;;;2.05;;
789;SDS011;378;48.844;9.156;2023-05-07T11:38:46;3.47;;;2.00;;
789;SDS011;378;48.844;9.156;2023-05-07T11:41:13;5.50;;;1.90;;
789;SDS011;378;48.844;9.156;2023-05-07T11:46:28;5.95;;;2.22;;
789;SDS011;378;48.844;9.156;2023-05-07T11:48:55;5.97;;;1.90;;
789;SDS011;378;48.844;9.156;2023-05-07T11:51:23;3.55;;;1.80;;
789;SDS011;378;48.844;9.156;2023-05-07T11:53:51;5.28;;;1.92;;
789;SDS011;378;48.844;9.156;2023-05-07T11:56:18;2.67;;;1.85;;
789;SDS011;378;48.844;9.156;2023-05-07T11:58:46;3.13;;;1.55;;
789;SDS011;378;48.844;9.156;2023-05-07T12:01:13;4.97;;;2.08;;
789;SDS011;378;48.844;9.156;2023-05-07T12:03:43;2.30;;;1.52;;
789;SDS011;378;48.844;9.156;2023-05-07T12:06:11;4.25;;;1.67;;
789;SDS011;378;48.844;9.156;2023-05-07T12:08:39;2.40;;;1.70;;
789;SDS011;378;48.844;9.156;2023-05-07T12:11:07;3.78;;;1.80;;
789;SDS011;378;48.844;9.156;2023-05-07T12:13:36;4.60;;;1.50;;
789;SDS011;378;48.844;9.156;2023-05-07T12:16:03;2.83;;;1.52;;
789;SDS011;378;48.844;9.156;2023-05-07T12:18:32;5.03;;;2.20;;
789;SDS011;378;48.844;9.156;2023-05-07T12:21:01;5.45;;;2.08;;
789;SDS011;378;48.844;9.156;2023-05-07T12:23:30;2.17;;;1.73;;
789;SDS011;378;48.844;9.156;2023-05-07T12:25:57;4.15;;;1.50;;
789;SDS011;378;48.844;9.156;2023-05-07T12:28:26;3.22;;;1.30;;
789;SDS011;378;48.844;9.156;2023-05-07T12:30:52;2.88;;;1.63;;
789;SDS011;378;48.844;9.156;2023-05-07T12:33:23;3.28;;;1.60;;
789;SDS011;378;48.844;9.156;2023-05-07T12:35:51;3.10;;;1.10;;
789;SDS011;378;48.844;9.156;2023-05-07T12:38:22;5.82;;;2.55;;
789;SDS011;378;48.844;9.156;2023-05-07T12:40:50;3.28;;;2.00;;
789;SDS011;378;48.844;9.156;2023-05-07T12:43:20;5.68;;;2.17;;
789;SDS011;378;48.844;9.156;2023-05-07T12:45:48;5.88;;;1.88;;
789;SDS011;378;48.844;9.156;2023-05-07T12:48:16;2.65;;;1.70;;
789;SDS011;378;48.844;9.156;2023-05-07T12:50:43;5.55;;;2.30;;
789;SDS011;378;48.844;9.156;2023-05-07T12:53:10;5.82;;;2.35;;
789;SDS011;378;48.844;9.156;2023-05-07T12:55:43;8.52;;;2.50;;
789;SDS011;378;48.844;9.156;2023-05-07T12:58:18;7.97;;;1.90;;
789;SDS011;378;48.844;9.156;2023-05-07T13:00:47;3.17;;;1.83;;
789;SDS011;378;48.844;9.156;2023-05-07T13:03:22;7.63;;;2.10;;
789;SDS011;378;48.844;9.156;2023-05-07T13:05:51;2.85;;;1.60;;
789;SDS011;378;48.844;9.156;2023-05-07T13:08:25;2.85;;;1.88;;
789;SDS011;378;48.844;9.156;2023-05-07T13:10:54;5.40;;;1.80;;
789;SDS011;378;48.844;9.156;2023-05-07T13:13:21;5.10;;;1.85;;
789;SDS011;378;48.844;9.156;2023-05-07T13:15:48;5.72;;;1.67;;
789;SDS011;378;48.844;9.156;2023-05-07T13:18:15;2.00;;;1.70;;
789;SDS011;378;48.844;9.156;2023-05-07T13:20:43;5.25;;;1.90;;
789;SDS011;378;48.844;9.156;2023-05-07T13:23:10;3.15;;;1.40;;
789;SDS011;378;48.844;9.156;2023-05-07T13:25:37;3.25;;;1.48;;
789;SDS011;378;48.844;9.156;2023-05-07T13:28:05;3.15;;;1.52;;
789;SDS011;378;48.844;9.156;2023-05-07T13:30:32;3.35;;;1.40;;
789;SDS011;378;48.844;9.156;2023-05-07T13:32:59;6.72;;;1.80;;
789;SDS011;378;48.844;9.156;2023-05-07T13:35:26;3.13;;;1.52;;
789;SDS011;378;48.844;9.156;2023-05-07T13:37:53;6.03;;;1.90;;
789;SDS011;378;48.844;9.156;2023-05-07T13:40:20;2.25;;;1.65;;
789;SDS011;378;48.844;9.156;2023-05-07T13:42:48;5.90;;;1.67;;
789;SDS011;378;48.844;9.156;2023-05-07T13:45:16;4.07;;;1.65;;
789;SDS011;378;48.844;9.156;2023-05-07T13:47:44;3.40;;;2.00;;
789;SDS011;378;48.844;9.156;2023-05-07T13:50:11;6.47;;;2.15;;
789;SDS011;378;48.844;9.156;2023-05-07T13:52:40;4.13;;;1.80;;
789;SDS011;378;48.844;9.156;2023-05-07T13:55:08;4.32;;;2.00;;
789;SDS011;378;48.844;9.156;2023-05-07T13:57:35;4.28;;;2.05;;
789;SDS011;378;48.844;9.156;2023-05-07T14:00:02;6.32;;;1.30;;
789;SDS011;378;48.844;9.156;2023-05-07T14:02:31;2.40;;;1.13;;
789;SDS011;378;48.844;9.156;2023-05-07T14:04:58;9.00;;;1.20;;
789;SDS011;378;48.844;9.156;2023-05-07T14:07:25;5.57;;;1.52;;
789;SDS011;378;48.844;9.156;2023-05-07T14:09:52;3.22;;;1.70;;
789;SDS011;378;48.844;9.156;2023-05-07T14:12:18;2.90;;;1.70;;
789;SDS011;378;48.844;9.156;2023-05-07T14:14:45;5.00;;;1.80;;
789;SDS011;378;48.844;9.156;2023-05-07T14:17:14;7.00;;;1.80;;
789;SDS011;378;48.844;9.156;2023-05-07T14:19:43;3.33;;;1.40;;
789;SDS011;378;48.844;9.156;2023-05-07T14:22:09;3.55;;;1.50;;
789;SDS011;378;48.844;9.156;2023-05-07T14:24:36;4.63;;;1.50;;
789;SDS011;378;48.844;9.156;2023-05-07T14:27:04;4.90;;;1.95;;
789;SDS011;378;48.844;9.156;2023-05-07T14:29:31;3.30;;;1.83;;
789;SDS011;378;48.844;9.156;2023-05-07T14:32:00;6.22;;;2.20;;
789;SDS011;378;48.844;9.156;2023-05-07T14:34:27;3.20;;;2.38;;
789;SDS011;378;48.844;9.156;2023-05-07T14:36:55;3.90;;;2.20;;
789;SDS011;378;48.844;9.156;2023-05-07T14:39:22;4.35;;;2.30;;
789;SDS011;378;48.844;9.156;2023-05-07T14:41:49;4.28;;;2.35;;
789;SDS011;378;48.844;9.156;2023-05-07T14:44:16;3.85;;;2.08;;
789;SDS011;378;48.844;9.156;2023-05-07T14:46:42;5.88;;;2.38;;
789;SDS011;378;48.844;9.156;2023-05-07T14:49:09;4.20;;;2.60;;
789;SDS011;378;48.844;9.156;2023-05-07T14:51:42;4.90;;;3.00;;
789;SDS011;378;48.844;9.156;2023-05-07T14:54:10;4.30;;;2.40;;
789;SDS011;378;48.844;9.156;2023-05-07T14:56:37;2.88;;;2.40;;
789;SDS011;378;48.844;9.156;2023-05-07T14:59:04;5.15;;;2.65;;
789;SDS011;378;48.844;9.156;2023-05-07T15:01:31;3.55;;;2.38;;
789;SDS011;378;48.844;9.156;2023-05-07T15:03:58;8.07;;;2.20;;
789;SDS011;378;48.844;9.156;2023-05-07T15:06:25;8.98;;;2.42;;
789;SDS011;378;48.844;9.156;2023-05-07T15:08:52;3.67;;;2.28;;
789;SDS011;378;48.844;9.156;2023-05-07T15:11:20;3.13;;;1.90;;
789;SDS011;378;48.844;9.156;2023-05-07T15:13:47;2.22;;;1.98;;
789;SDS011;378;48.844;9.156;2023-05-07T15:16:15;3.25;;;2.28;;
789;SDS011;378;48.844;9.156;2023-05-07T15:18:42;5.13;;;2.50;;
789;SDS011;378;48.844;9.156;2023-05-07T15:21:09;4.55;;;2.47;;
789;SDS011;378;48.844;9.156;2023-05-07T15:23:36;5.28;;;3.15;;
789;SDS011;378;48.844;9.156;2023-05-07T15:26:03;6.43;;;2.88;;
789;SDS011;378;48.844;9.156;2023-05-07T15:28:31;4.30;;;2.88;;
789;SDS011;378;48.844;9.156;2023-05-07T15:30:58;4.10;;;3.00;;
789;SDS011;378;48.844;9.156;2023-05-07T15:33:25;8.63;;;2.80;;
789;SDS011;378;48.844;9.156;2023-05-07T15:35:52;4.97;;;2.85;;
789;SDS011;378;48.844;9.156;2023-05-07T15:38:19;6.55;;;3.10;;
789;SDS011;378;48.844;9.156;2023-05-07T15:40:45;5.30;;;2.97;;
789;SDS011;378;48.844;9.156;2023-05-07T15:43:12;8.93;;;2.70;;
789;SDS011;378;48.844;9.156;2023-05-07T15:45:41;5.72;;;2.38;;
789;SDS011;378;48.844;9.156;2023-05-07T15:48:09;3.00;;;2.22;;
789;SDS011;378;48.844;9.156;2023-05-07T15:50:36;4.72;;;2.25;;
789;SDS011;378;48.844;9.156;2023-05-07T15:53:04;5.35;;;2.40;;
789;SDS011;378;48.844;9.156;2023-05-07T15:55:32;5.15;;;2.67;;
789;SDS011;378;48.844;9.156;2023-05-07T15:58:31;4.50;;;2.63;;
789;SDS011;378;48.844;9.156;2023-05-07T16:08:42;37.78;;;15.35;;
789;SDS011;378;48.844;9.156;2023-05-07T16:11:53;10.02;;;5.60;;